Time;durP1;ratioP1;P1;durP2;ratioP2;P2;SDS_P1;SDS_P2;PMS_P1;PMS_P2;Temp;Humidity;BMP_temperature;BMP_pressure;BME280_temperature;BME280_humidity;BME280_pressure;Samples;Min_cycle;Max_cycle;Signal;HPM_P1;HPM_P2
2023/03/22 00:02:16;;;;;;;19.35;17.20;;;13.30;96.70;;;;;;5081557;28;20059;-71
2023/03/22 00:04:44;;;;;;;22.05;16.65;;;13.40;96.70;;;;;;5103669;27;20136;-70
2023/03/22 00:07:12;;;;;;;19.77;17.67;;;13.40;96.70;;;;;;5082262;28;20036;-71
2023/03/22 00:09:41;;;;;;;19.70;16.98;;;13.30;96.70;;;;;;5102668;28;20044;-71
2023/03/22 00:12:09;;;;;;;20.48;17.48;;;13.40;96.70;;;;;;5088443;28;20048;-71
2023/03/22 00:14:37;;;;;;;19.92;17.27;;;13.40;96.70;;;;;;5081881;28;20534;-71
2023/03/22 00:17:05;;;;;;;20.30;17.65;;;13.30;96.70;;;;;;5081082;28;20048;-71
2023/03/22 00:19:35;;;;;;;22.25;17.35;;;13.30;96.70;;;;;;5084100;28;20046;-71
2023/03/22 00:22:05;;;;;;;19.13;16.48;;;13.30;96.70;;;;;;5082518;28;20341;-71
2023/03/22 00:24:33;;;;;;;20.02;17.73;;;13.30;96.70;;;;;;5081997;28;20043;-71
2023/03/22 00:27:02;;;;;;;20.05;17.88;;;13.30;96.70;;;;;;5079447;28;20040;-71
2023/03/22 00:29:30;;;;;;;21.02;17.58;;;13.30;96.70;;;;;;5079715;28;20163;-71
2023/03/22 00:31:58;;;;;;;22.23;18.08;;;13.30;96.70;;;;;;5080597;28;20044;-71
2023/03/22 00:34:30;;;;;;;20.25;17.10;;;13.30;96.70;;;;;;5065423;28;20051;-71
2023/03/22 00:37:01;;;;;;;19.17;17.17;;;13.30;96.70;;;;;;5081619;28;20040;-71
2023/03/22 00:39:29;;;;;;;21.05;17.45;;;13.30;96.70;;;;;;5079130;28;20044;-71
2023/03/22 00:41:57;;;;;;;17.92;15.93;;;13.30;96.70;;;;;;5094002;28;20035;-71
2023/03/22 00:44:25;;;;;;;21.52;17.23;;;13.20;96.70;;;;;;5083474;28;20134;-71
2023/03/22 00:46:53;;;;;;;19.45;17.00;;;13.20;96.70;;;;;;5078720;28;20473;-71
2023/03/22 00:49:22;;;;;;;18.02;15.98;;;13.20;96.70;;;;;;5079315;28;20058;-71
2023/03/22 00:51:50;;;;;;;17.20;15.38;;;13.20;96.70;;;;;;5067547;28;20040;-71
2023/03/22 00:54:20;;;;;;;18.88;15.63;;;13.20;96.70;;;;;;5079067;28;20062;-71
2023/03/22 00:56:48;;;;;;;19.63;15.73;;;13.20;96.70;;;;;;5079937;28;20054;-71
2023/03/22 00:59:17;;;;;;;18.80;14.65;;;13.20;96.70;;;;;;5056504;28;20192;-70
2023/03/22 01:01:45;;;;;;;18.83;15.88;;;13.20;96.70;;;;;;5079594;28;20064;-70
2023/03/22 01:04:16;;;;;;;17.13;15.18;;;13.20;96.70;;;;;;5079252;28;20405;-71
2023/03/22 01:06:46;;;;;;;17.20;15.18;;;13.20;96.70;;;;;;5080361;28;20078;-71
2023/03/22 01:09:14;;;;;;;16.98;13.98;;;13.20;96.70;;;;;;5059017;28;20097;-71
2023/03/22 01:11:45;;;;;;;14.30;12.60;;;13.20;96.70;;;;;;5081688;28;20557;-70
2023/03/22 01:14:15;;;;;;;13.88;11.75;;;13.20;96.70;;;;;;5080801;28;20067;-71
2023/03/22 01:16:43;;;;;;;13.15;11.75;;;13.10;96.70;;;;;;5075203;28;20132;-71
2023/03/22 01:19:11;;;;;;;14.43;12.88;;;13.10;96.70;;;;;;5076157;28;20044;-71
2023/03/22 01:21:40;;;;;;;13.77;12.02;;;13.20;96.70;;;;;;5079234;28;20047;-71
2023/03/22 01:24:08;;;;;;;13.45;12.00;;;13.20;96.70;;;;;;5081267;28;20509;-70
2023/03/22 01:26:37;;;;;;;14.20;12.20;;;13.10;96.70;;;;;;5080361;28;20075;-71
2023/03/22 01:29:07;;;;;;;14.85;13.00;;;13.10;96.70;;;;;;5082266;28;20036;-71
2023/03/22 01:31:35;;;;;;;15.20;12.30;;;13.10;96.70;;;;;;5080060;28;20051;-71
2023/03/22 01:34:03;;;;;;;13.57;12.18;;;13.10;96.70;;;;;;5083323;28;20054;-70
2023/03/22 01:36:32;;;;;;;15.50;12.80;;;13.20;96.70;;;;;;5071051;28;20501;-70
2023/03/22 01:39:00;;;;;;;13.57;12.13;;;13.10;96.70;;;;;;5078373;28;20537;-70
2023/03/22 01:41:28;;;;;;;15.23;12.25;;;13.00;96.70;;;;;;5070589;28;20052;-71
2023/03/22 01:44:11;;;;;;;15.57;12.52;;;13.00;96.70;;;;;;5078890;28;20485;-71
2023/03/22 01:46:41;;;;;;;13.57;12.07;;;12.90;96.70;;;;;;5070098;28;20048;-70
2023/03/22 01:49:14;;;;;;;13.27;11.85;;;12.90;96.70;;;;;;5079962;28;20227;-71
2023/03/22 01:51:45;;;;;;;12.77;11.40;;;12.90;96.70;;;;;;5077699;28;20136;-70
2023/03/22 01:54:26;;;;;;;15.57;13.23;;;13.00;96.70;;;;;;5073416;28;20549;-71
2023/03/22 01:56:55;;;;;;;14.43;12.93;;;13.00;96.70;;;;;;5077713;28;20576;-72
2023/03/22 01:59:35;;;;;;;15.70;13.20;;;13.00;96.70;;;;;;5080849;28;20497;-71
2023/03/22 02:02:17;;;;;;;14.60;13.00;;;13.00;96.70;;;;;;5079122;28;20040;-71
2023/03/22 02:04:56;;;;;;;14.65;13.02;;;12.90;96.70;;;;;;5069893;28;20036;-71
2023/03/22 02:07:30;;;;;;;16.60;14.23;;;12.90;96.70;;;;;;5078878;28;20139;-71
2023/03/22 02:10:01;;;;;;;14.60;12.95;;;12.90;96.70;;;;;;5079491;28;20051;-71
2023/03/22 02:12:51;;;;;;;16.52;13.57;;;12.90;96.70;;;;;;5076432;28;20141;-71
2023/03/22 02:15:47;;;;;;;14.57;13.10;;;12.80;96.70;;;;;;5094505;28;20036;-71
2023/03/22 02:18:58;;;;;;;15.95;13.35;;;12.90;96.70;;;;;;5065460;28;20044;-71
2023/03/22 02:22:00;;;;;;;15.75;14.05;;;12.90;96.70;;;;;;5059103;28;20056;-70
2023/03/22 02:25:06;;;;;;;16.05;13.57;;;12.90;96.70;;;;;;5082426;28;20036;-71
2023/03/22 02:27:55;;;;;;;14.77;13.27;;;12.90;96.70;;;;;;5075378;28;20052;-71
2023/03/22 02:30:54;;;;;;;13.48;12.00;;;12.90;96.70;;;;;;5074297;28;20048;-70
2023/03/22 02:33:45;;;;;;;17.27;12.98;;;12.80;96.70;;;;;;5071282;28;20489;-70
2023/03/22 02:36:33;;;;;;;13.25;11.95;;;12.90;96.70;;;;;;5076986;28;20039;-71
2023/03/22 02:39:20;;;;;;;14.93;12.43;;;12.90;96.70;;;;;;5078559;28;20036;-71
2023/03/22 02:42:09;;;;;;;13.85;12.45;;;12.80;96.70;;;;;;5075349;28;21336;-70
2023/03/22 02:44:41;;;;;;;13.98;12.25;;;12.80;96.70;;;;;;5076362;28;20070;-71
2023/03/22 02:47:21;;;;;;;16.58;13.30;;;12.80;96.70;;;;;;5068720;28;20135;-70
2023/03/22 02:49:55;;;;;;;14.20;12.60;;;12.80;96.70;;;;;;5078704;28;20090;-70
2023/03/22 02:52:29;;;;;;;14.70;12.18;;;12.90;96.70;;;;;;5077563;28;21350;-71
2023/03/22 02:55:04;;;;;;;15.43;13.10;;;12.90;96.70;;;;;;5077600;28;20040;-70
2023/03/22 02:57:40;;;;;;;14.57;12.52;;;12.80;96.70;;;;;;5068194;28;20132;-70
2023/03/22 03:00:11;;;;;;;14.73;12.90;;;12.80;96.70;;;;;;5067163;28;20508;-71
2023/03/22 03:02:42;;;;;;;16.73;13.35;;;12.70;96.70;;;;;;5096774;28;20044;-71
2023/03/22 03:05:13;;;;;;;14.10;12.68;;;12.80;96.70;;;;;;5069418;28;20065;-70
2023/03/22 03:07:45;;;;;;;15.07;13.35;;;12.80;96.70;;;;;;5077352;28;20097;-71
2023/03/22 03:10:16;;;;;;;16.30;13.88;;;12.80;96.70;;;;;;5076619;28;20106;-70
2023/03/22 03:12:45;;;;;;;15.40;13.55;;;12.80;96.70;;;;;;5082911;28;20101;-71
2023/03/22 03:15:15;;;;;;;18.63;14.00;;;12.80;96.70;;;;;;5083985;28;20052;-71
2023/03/22 03:17:57;;;;;;;17.90;14.63;;;12.80;96.70;;;;;;5079479;28;20799;-70
2023/03/22 03:20:33;;;;;;;15.32;13.57;;;12.90;96.70;;;;;;5081283;28;20413;-71
2023/03/22 03:23:13;;;;;;;23.17;16.25;;;12.80;96.70;;;;;;5079480;28;20048;-71
2023/03/22 03:25:51;;;;;;;24.08;17.40;;;12.90;96.70;;;;;;5085465;28;20052;-70
2023/03/22 03:28:29;;;;;;;25.55;17.30;;;12.70;96.70;;;;;;5084768;28;20043;-71
2023/03/22 03:31:02;;;;;;;28.30;17.58;;;12.70;96.70;;;;;;5065462;28;20050;-70
2023/03/22 03:33:34;;;;;;;33.53;18.75;;;12.80;96.70;;;;;;5081592;28;20631;-70
2023/03/22 03:36:08;;;;;;;29.60;18.02;;;12.80;96.70;;;;;;5077839;28;20044;-71
2023/03/22 03:38:43;;;;;;;31.13;17.48;;;12.80;96.70;;;;;;5078488;28;20032;-70
2023/03/22 03:41:15;;;;;;;31.25;18.15;;;12.80;96.70;;;;;;5075932;28;20458;-70
2023/03/22 03:43:44;;;;;;;28.70;16.95;;;12.80;96.70;;;;;;5058156;28;20056;-71
2023/03/22 03:46:13;;;;;;;33.38;18.10;;;12.80;96.70;;;;;;5072131;28;20064;-70
2023/03/22 03:48:44;;;;;;;39.97;20.85;;;12.90;96.70;;;;;;5079786;28;20044;-70
2023/03/22 03:51:12;;;;;;;37.95;20.20;;;12.80;96.70;;;;;;5076572;28;20049;-70
2023/03/22 03:53:40;;;;;;;36.45;20.90;;;12.80;96.70;;;;;;5081298;28;20050;-70
2023/03/22 03:56:09;;;;;;;44.08;22.73;;;12.80;96.70;;;;;;5080752;28;20505;-71
2023/03/22 03:58:43;;;;;;;42.38;21.83;;;12.80;96.70;;;;;;5075776;28;20047;-71
2023/03/22 04:01:11;;;;;;;39.63;20.55;;;12.80;96.70;;;;;;5085345;28;20480;-71
2023/03/22 04:03:56;;;;;;;37.65;20.02;;;12.80;96.70;;;;;;5074090;28;20043;-71
2023/03/22 04:06:34;;;;;;;35.88;20.80;;;12.70;96.70;;;;;;5080360;28;20593;-71
2023/03/22 04:09:08;;;;;;;45.35;20.58;;;12.70;96.70;;;;;;5074411;28;20559;-71
2023/03/22 04:11:41;;;;;;;39.72;19.45;;;12.70;96.70;;;;;;5076238;28;20055;-71
2023/03/22 04:14:12;;;;;;;39.17;18.85;;;12.80;96.70;;;;;;5059976;28;20043;-70
2023/03/22 04:16:39;;;;;;;42.70;19.50;;;12.80;96.70;;;;;;5083258;28;20096;-71
2023/03/22 04:19:11;;;;;;;37.05;19.63;;;12.80;96.70;;;;;;5066534;28;20808;-71
2023/03/22 04:21:39;;;;;;;39.92;19.02;;;12.80;96.70;;;;;;5081533;28;20143;-71
2023/03/22 04:24:09;;;;;;;33.75;18.55;;;12.80;96.70;;;;;;5077566;28;20032;-71
2023/03/22 04:26:40;;;;;;;40.72;18.67;;;12.80;96.70;;;;;;5073927;28;20307;-70
2023/03/22 04:29:21;;;;;;;38.70;19.25;;;12.90;96.70;;;;;;5080871;28;20687;-71
2023/03/22 04:31:54;;;;;;;34.92;18.63;;;12.80;96.70;;;;;;5080382;28;20043;-71
2023/03/22 04:34:35;;;;;;;40.05;18.67;;;12.70;96.70;;;;;;5081251;28;20054;-71
2023/03/22 04:37:06;;;;;;;33.42;18.02;;;12.80;96.70;;;;;;5074337;28;20048;-70
2023/03/22 04:39:45;;;;;;;38.70;19.70;;;12.80;96.70;;;;;;5078451;28;20189;-71
2023/03/22 04:42:22;;;;;;;40.45;19.58;;;12.80;96.70;;;;;;5082698;28;20056;-71
2023/03/22 04:45:02;;;;;;;41.50;20.73;;;12.70;96.70;;;;;;5076665;28;20506;-70
2023/03/22 04:47:32;;;;;;;37.45;19.10;;;12.50;96.70;;;;;;5082373;28;20078;-70
2023/03/22 04:50:02;;;;;;;37.17;21.83;;;12.60;96.70;;;;;;5081043;28;20059;-70
2023/03/22 04:52:34;;;;;;;36.42;20.75;;;12.70;96.70;;;;;;5080940;28;20040;-70
2023/03/22 04:55:02;;;;;;;39.58;22.30;;;12.70;96.70;;;;;;5073882;28;20048;-70
2023/03/22 04:57:30;;;;;;;37.67;20.35;;;12.80;96.70;;;;;;5080232;28;20039;-70
2023/03/22 04:59:58;;;;;;;38.70;21.55;;;12.70;96.70;;;;;;5082958;28;20043;-70
2023/03/22 05:02:28;;;;;;;39.13;22.17;;;12.70;96.70;;;;;;5062685;28;20039;-71
2023/03/22 05:04:56;;;;;;;42.38;22.23;;;12.80;96.70;;;;;;5082467;28;20051;-71
2023/03/22 05:07:35;;;;;;;41.22;22.73;;;12.70;96.70;;;;;;5079342;28;20047;-70
2023/03/22 05:10:05;;;;;;;39.70;21.77;;;12.70;96.70;;;;;;5078127;28;21615;-71
2023/03/22 05:12:33;;;;;;;41.42;22.00;;;12.80;96.70;;;;;;5070818;28;20139;-70
2023/03/22 05:15:19;;;;;;;41.30;22.33;;;12.80;96.70;;;;;;5080041;28;20055;-70
2023/03/22 05:17:51;;;;;;;41.47;20.98;;;12.80;96.70;;;;;;5068505;28;20775;-70
2023/03/22 05:20:19;;;;;;;27.88;17.98;;;12.90;96.70;;;;;;5074172;28;20048;-70
2023/03/22 05:22:56;;;;;;;32.58;19.05;;;12.80;96.70;;;;;;5073906;28;20071;-70
2023/03/22 05:25:27;;;;;;;33.47;20.55;;;12.80;96.70;;;;;;5078136;28;20048;-70
2023/03/22 05:28:00;;;;;;;34.13;19.90;;;12.70;96.70;;;;;;5078542;28;20101;-70
2023/03/22 05:30:56;;;;;;;38.55;20.08;;;12.80;96.70;;;;;;5074191;28;20047;-70
2023/03/22 05:33:52;;;;;;;33.33;18.08;;;12.80;96.70;;;;;;5083480;28;20052;-70
2023/03/22 05:36:22;;;;;;;34.03;20.35;;;12.80;96.70;;;;;;5074710;28;20054;-70
2023/03/22 05:39:09;;;;;;;26.73;17.15;;;12.80;96.70;;;;;;5076612;28;20044;-70
2023/03/22 05:41:37;;;;;;;27.70;18.33;;;12.80;96.70;;;;;;5073203;28;20044;-70
2023/03/22 05:44:05;;;;;;;25.17;16.35;;;12.80;96.70;;;;;;5080039;28;20043;-70
2023/03/22 05:46:36;;;;;;;26.58;17.42;;;12.80;96.70;;;;;;5078751;28;20066;-70
2023/03/22 05:49:37;;;;;;;25.55;16.33;;;12.70;96.70;;;;;;5051706;28;20135;-70
2023/03/22 05:52:06;;;;;;;27.02;17.60;;;12.80;96.70;;;;;;5071976;28;20063;-70
2023/03/22 05:54:47;;;;;;;25.05;16.73;;;12.80;96.70;;;;;;5073947;28;20044;-70
2023/03/22 05:57:16;;;;;;;27.25;16.90;;;12.90;96.70;;;;;;5063089;28;20048;-70
2023/03/22 05:59:44;;;;;;;26.05;16.45;;;12.80;96.70;;;;;;5076477;28;20120;-70
2023/03/22 06:02:18;;;;;;;23.88;15.98;;;12.80;96.70;;;;;;5069230;28;20044;-70
2023/03/22 06:04:48;;;;;;;23.27;16.45;;;12.90;96.70;;;;;;5081969;28;20043;-70
2023/03/22 06:07:17;;;;;;;22.60;15.52;;;12.80;96.70;;;;;;5079553;28;20047;-69
2023/03/22 06:09:59;;;;;;;25.35;16.40;;;12.80;96.70;;;;;;5063505;28;20060;-70
2023/03/22 06:12:30;;;;;;;22.75;15.73;;;12.80;96.70;;;;;;5071957;28;20044;-70
2023/03/22 06:15:06;;;;;;;26.63;16.63;;;12.80;96.70;;;;;;5066843;28;20036;-70
2023/03/22 06:17:35;;;;;;;23.58;16.05;;;12.80;96.70;;;;;;5079461;28;20101;-70
2023/03/22 06:20:09;;;;;;;22.25;15.05;;;12.80;96.70;;;;;;5079874;28;20044;-70
2023/03/22 06:22:41;;;;;;;24.30;15.93;;;12.80;96.70;;;;;;5079387;28;20139;-70
2023/03/22 06:25:10;;;;;;;24.85;15.63;;;12.90;96.70;;;;;;5080881;28;20036;-70
2023/03/22 06:27:45;;;;;;;24.10;14.95;;;12.90;96.70;;;;;;5080184;28;20032;-70
2023/03/22 06:30:13;;;;;;;24.40;15.45;;;12.80;96.70;;;;;;5081592;28;20044;-70
2023/03/22 06:33:04;;;;;;;22.75;15.32;;;12.80;96.70;;;;;;5053588;28;20056;-70
2023/03/22 06:35:37;;;;;;;21.38;14.35;;;12.80;96.70;;;;;;5085762;28;20084;-70
2023/03/22 06:38:12;;;;;;;21.02;13.75;;;12.90;96.70;;;;;;5084297;28;20622;-70
2023/03/22 06:40:40;;;;;;;22.73;15.50;;;12.90;96.70;;;;;;5082810;28;20048;-70
2023/03/22 06:43:08;;;;;;;23.13;14.38;;;12.90;96.70;;;;;;5085592;28;20072;-71
2023/03/22 06:45:44;;;;;;;23.30;14.18;;;12.90;96.70;;;;;;5083649;28;20048;-71
2023/03/22 06:48:20;;;;;;;23.33;14.85;;;13.00;96.70;;;;;;5085389;28;20693;-71
2023/03/22 06:50:58;;;;;;;20.02;14.45;;;13.00;96.70;;;;;;5084551;28;20076;-70
2023/03/22 06:53:32;;;;;;;22.45;14.60;;;13.00;96.70;;;;;;5088913;28;20100;-70
2023/03/22 06:56:01;;;;;;;25.83;14.85;;;13.00;96.70;;;;;;5088949;28;20582;-70
2023/03/22 06:58:33;;;;;;;24.08;15.27;;;13.00;96.70;;;;;;5084906;28;20822;-70
2023/03/22 07:01:01;;;;;;;23.60;15.32;;;13.00;96.70;;;;;;5085040;28;20044;-70
2023/03/22 07:03:44;;;;;;;21.60;14.38;;;13.10;96.70;;;;;;5049867;28;20052;-71
2023/03/22 07:06:16;;;;;;;23.33;14.77;;;13.10;96.70;;;;;;5077373;28;20136;-71
2023/03/22 07:08:48;;;;;;;23.70;15.13;;;13.10;96.70;;;;;;5103841;27;20052;-72
2023/03/22 07:11:24;;;;;;;28.13;15.52;;;13.10;96.70;;;;;;5083874;28;20068;-71
2023/03/22 07:13:58;;;;;;;22.50;15.13;;;13.10;96.70;;;;;;5086504;28;20390;-70
2023/03/22 07:16:34;;;;;;;22.90;15.52;;;13.10;96.70;;;;;;5085415;28;20160;-70
2023/03/22 07:19:05;;;;;;;29.33;16.73;;;13.10;96.70;;;;;;5085633;28;20068;-71
2023/03/22 07:21:35;;;;;;;23.40;15.07;;;13.10;96.70;;;;;;5092202;28;20048;-71
2023/03/22 07:24:08;;;;;;;25.55;15.90;;;13.20;96.70;;;;;;5084449;28;20130;-71
2023/03/22 07:26:37;;;;;;;26.00;15.65;;;13.20;96.70;;;;;;5084222;28;20044;-71
2023/03/22 07:29:06;;;;;;;22.95;15.48;;;13.20;96.70;;;;;;5089062;28;20051;-70
2023/03/22 07:31:36;;;;;;;27.95;16.20;;;13.20;96.70;;;;;;5085009;28;20077;-71
2023/03/22 07:34:11;;;;;;;25.52;16.95;;;13.20;96.70;;;;;;5086623;28;20090;-71
2023/03/22 07:37:01;;;;;;;25.17;17.08;;;13.30;96.70;;;;;;5089376;28;20064;-71
2023/03/22 07:39:30;;;;;;;28.88;18.08;;;13.30;96.70;;;;;;5084207;28;20615;-71
2023/03/22 07:41:58;;;;;;;29.50;20.00;;;13.40;96.70;;;;;;5083441;28;20047;-71
2023/03/22 07:44:48;;;;;;;24.98;17.10;;;13.40;96.70;;;;;;5043251;28;20052;-71
2023/03/22 07:47:17;;;;;;;25.40;17.67;;;13.40;96.70;;;;;;5097976;28;20052;-71
2023/03/22 07:50:22;;;;;;;24.60;16.88;;;13.50;96.70;;;;;;5102223;28;20047;-72
2023/03/22 07:52:56;;;;;;;23.98;16.92;;;13.60;96.70;;;;;;5091946;28;20122;-72
2023/03/22 07:55:24;;;;;;;25.88;17.13;;;13.60;96.70;;;;;;5091644;28;20047;-70
2023/03/22 07:57:53;;;;;;;23.58;17.00;;;13.60;96.70;;;;;;5082596;28;20386;-71
2023/03/22 08:00:22;;;;;;;24.95;18.08;;;13.60;96.70;;;;;;5078096;28;20060;-70
2023/03/22 08:03:12;;;;;;;25.98;18.88;;;13.80;96.70;;;;;;5088183;28;20054;-72
2023/03/22 08:06:05;;;;;;;25.77;18.92;;;13.80;96.70;;;;;;5093779;28;20058;-72
2023/03/22 08:08:36;;;;;;;24.38;17.65;;;13.90;96.70;;;;;;5069979;28;20067;-72
2023/03/22 08:11:05;;;;;;;22.90;16.70;;;14.00;96.70;;;;;;5083390;28;20044;-72
2023/03/22 08:13:34;;;;;;;20.13;15.88;;;14.20;96.70;;;;;;5083178;28;20051;-72
2023/03/22 08:16:03;;;;;;;23.88;17.02;;;14.30;96.70;;;;;;5097701;28;20051;-72
2023/03/22 08:18:31;;;;;;;23.33;17.00;;;14.40;96.70;;;;;;5082912;28;20413;-72
2023/03/22 08:20:59;;;;;;;26.13;17.75;;;14.60;96.70;;;;;;5083165;28;20048;-72
2023/03/22 08:23:31;;;;;;;23.63;17.05;;;14.70;96.70;;;;;;5089690;28;20408;-72
2023/03/22 08:26:26;;;;;;;25.65;17.58;;;14.60;96.70;;;;;;5084649;28;20517;-72
2023/03/22 08:28:58;;;;;;;24.92;17.30;;;14.60;96.70;;;;;;5083205;28;20130;-73
2023/03/22 08:31:30;;;;;;;26.75;19.27;;;14.60;96.70;;;;;;5082825;28;20105;-71
2023/03/22 08:33:59;;;;;;;23.55;18.25;;;14.60;96.70;;;;;;5082739;28;20059;-71
2023/03/22 08:36:43;;;;;;;26.50;19.65;;;14.60;96.70;;;;;;5082566;28;20114;-70
2023/03/22 08:39:12;;;;;;;29.13;19.23;;;14.60;96.70;;;;;;5082768;28;20514;-71
2023/03/22 08:41:52;;;;;;;27.63;20.27;;;14.70;96.70;;;;;;5083416;28;20548;-71
2023/03/22 08:44:23;;;;;;;29.70;20.20;;;14.70;96.70;;;;;;5082516;28;20048;-72
2023/03/22 08:46:55;;;;;;;31.60;21.35;;;14.80;96.70;;;;;;5077830;28;20051;-72
2023/03/22 08:49:23;;;;;;;33.05;21.42;;;14.90;96.70;;;;;;5088073;28;20436;-72
2023/03/22 08:52:06;;;;;;;27.88;20.25;;;14.90;96.70;;;;;;5092037;28;20062;-71
2023/03/22 08:54:47;;;;;;;27.40;19.73;;;14.90;96.70;;;;;;5083734;28;20047;-72
2023/03/22 08:57:49;;;;;;;32.85;22.55;;;15.00;96.70;;;;;;5045420;28;20052;-72
2023/03/22 09:00:25;;;;;;;28.88;20.42;;;15.00;96.70;;;;;;5082429;28;20047;-72
2023/03/22 09:03:08;;;;;;;29.75;21.17;;;15.10;96.70;;;;;;5081816;28;20101;-72
2023/03/22 09:05:36;;;;;;;31.30;21.73;;;15.10;96.70;;;;;;5081845;28;20052;-72
2023/03/22 09:08:08;;;;;;;31.85;21.00;;;15.20;96.70;;;;;;5084620;28;20347;-72
2023/03/22 09:10:51;;;;;;;29.42;21.48;;;15.20;96.70;;;;;;5075403;28;20055;-72
2023/03/22 09:13:22;;;;;;;29.58;20.95;;;15.20;96.70;;;;;;5087955;28;20070;-71
2023/03/22 09:15:56;;;;;;;32.78;22.70;;;15.20;96.70;;;;;;5083946;28;20515;-71
2023/03/22 09:18:27;;;;;;;31.92;22.52;;;15.30;96.70;;;;;;5098267;28;20150;-71
2023/03/22 09:20:59;;;;;;;29.38;22.50;;;15.30;96.70;;;;;;5093576;28;20078;-71
2023/03/22 09:23:50;;;;;;;26.30;21.23;;;15.50;96.70;;;;;;5093173;28;20071;-71
2023/03/22 09:26:25;;;;;;;26.85;21.75;;;15.60;96.70;;;;;;5090301;28;20048;-71
2023/03/22 09:28:56;;;;;;;26.67;21.50;;;15.70;96.70;;;;;;5081904;28;20043;-71
2023/03/22 09:31:24;;;;;;;29.17;22.08;;;15.80;96.70;;;;;;5081245;28;20048;-70
2023/03/22 09:34:08;;;;;;;28.63;22.08;;;15.90;96.70;;;;;;5081087;28;20076;-72
2023/03/22 09:36:36;;;;;;;28.67;23.08;;;16.00;96.70;;;;;;5074779;28;20048;-72
2023/03/22 09:39:10;;;;;;;29.33;23.02;;;16.10;96.70;;;;;;5095737;28;20097;-73
2023/03/22 09:41:43;;;;;;;29.58;23.15;;;16.20;96.70;;;;;;5081863;28;20055;-72
2023/03/22 09:44:17;;;;;;;34.35;22.20;;;16.00;96.70;;;;;;5081839;28;20040;-72
2023/03/22 09:46:48;;;;;;;28.23;22.25;;;16.10;96.70;;;;;;5081161;28;20059;-72
2023/03/22 09:49:19;;;;;;;33.33;22.90;;;16.10;96.70;;;;;;5081115;28;20067;-72
2023/03/22 09:51:49;;;;;;;28.13;21.85;;;16.20;96.70;;;;;;5086120;28;20047;-72
2023/03/22 09:54:21;;;;;;;25.50;20.90;;;16.30;96.70;;;;;;5088048;28;20040;-72
2023/03/22 09:56:55;;;;;;;26.75;21.23;;;16.30;96.70;;;;;;5091899;28;20650;-72
2023/03/22 09:59:34;;;;;;;25.17;20.80;;;16.20;96.70;;;;;;5093334;28;20926;-71
2023/03/22 10:02:19;;;;;;;27.20;21.15;;;16.50;96.70;;;;;;5087713;28;20044;-71
2023/03/22 10:05:08;;;;;;;28.30;21.73;;;16.70;96.70;;;;;;5089542;28;20093;-70
2023/03/22 10:07:52;;;;;;;24.25;20.17;;;17.00;96.70;;;;;;5083024;28;20047;-72
2023/03/22 10:10:22;;;;;;;24.75;19.92;;;17.20;96.70;;;;;;5082178;28;20048;-73
2023/03/22 10:12:56;;;;;;;25.88;21.65;;;17.40;96.70;;;;;;5082340;28;20409;-72
2023/03/22 10:15:32;;;;;;;22.77;20.27;;;17.40;96.70;;;;;;5090109;28;20669;-72
2023/03/22 10:18:22;;;;;;;23.30;19.65;;;17.30;96.70;;;;;;5084737;28;20044;-72
2023/03/22 10:20:56;;;;;;;24.27;19.35;;;17.10;96.70;;;;;;5090193;28;20551;-71
2023/03/22 10:23:29;;;;;;;22.88;19.80;;;17.30;96.70;;;;;;5086317;28;20096;-71
2023/03/22 10:25:59;;;;;;;28.40;20.60;;;17.40;96.70;;;;;;5086734;28;20137;-71
2023/03/22 10:28:33;;;;;;;25.48;20.52;;;17.30;96.70;;;;;;5080815;28;20048;-71
2023/03/22 10:31:03;;;;;;;25.17;20.30;;;17.20;96.70;;;;;;5090828;28;20043;-71
2023/03/22 10:33:38;;;;;;;26.38;20.83;;;17.10;96.70;;;;;;5082097;28;20119;-71
2023/03/22 10:36:11;;;;;;;24.73;20.83;;;17.10;96.70;;;;;;5090945;28;20451;-71
2023/03/22 10:38:45;;;;;;;22.17;19.38;;;17.10;96.70;;;;;;5081095;28;20044;-71
2023/03/22 10:41:17;;;;;;;25.85;20.00;;;17.00;96.70;;;;;;5082236;28;20127;-71
2023/03/22 10:43:48;;;;;;;24.38;20.50;;;16.90;96.70;;;;;;5082338;28;20036;-71
2023/03/22 10:46:23;;;;;;;22.80;19.77;;;16.90;96.70;;;;;;5080445;28;20052;-71
2023/03/22 10:48:56;;;;;;;23.90;18.50;;;16.90;96.70;;;;;;5082219;28;20039;-71
2023/03/22 10:51:28;;;;;;;23.30;18.23;;;17.00;96.70;;;;;;5081657;28;20055;-71
2023/03/22 10:53:57;;;;;;;25.02;19.38;;;17.10;96.70;;;;;;5063975;28;20574;-71
2023/03/22 10:56:25;;;;;;;21.83;18.45;;;17.10;96.70;;;;;;5080955;28;20611;-71
2023/03/22 10:58:56;;;;;;;21.50;18.20;;;17.20;96.70;;;;;;5081997;28;20502;-73
2023/03/22 11:01:28;;;;;;;21.38;17.45;;;17.20;96.70;;;;;;5081777;28;20566;-71
2023/03/22 11:03:59;;;;;;;24.13;17.73;;;17.30;96.70;;;;;;5090806;28;20489;-71
2023/03/22 11:06:29;;;;;;;22.90;18.08;;;17.30;96.70;;;;;;5084163;28;20048;-71
2023/03/22 11:09:00;;;;;;;20.92;17.25;;;17.50;96.70;;;;;;5087013;28;20044;-71
2023/03/22 11:11:29;;;;;;;19.40;17.27;;;17.50;96.70;;;;;;5087978;28;20487;-71
2023/03/22 11:14:05;;;;;;;20.27;16.58;;;17.50;96.70;;;;;;5090287;28;20418;-71
2023/03/22 11:16:43;;;;;;;19.80;16.52;;;17.60;96.70;;;;;;5077672;28;20513;-71
2023/03/22 11:19:17;;;;;;;20.30;16.05;;;17.70;96.70;;;;;;5089442;28;20101;-71
2023/03/22 11:21:45;;;;;;;20.85;16.83;;;17.80;96.70;;;;;;5096808;28;20589;-71
2023/03/22 11:24:14;;;;;;;19.27;16.05;;;17.90;96.70;;;;;;5097226;28;20052;-71
2023/03/22 11:27:00;;;;;;;18.48;15.88;;;18.00;96.70;;;;;;5077117;28;20119;-71
2023/03/22 11:29:37;;;;;;;20.30;16.73;;;18.20;96.70;;;;;;5098997;28;20100;-71
2023/03/22 11:32:20;;;;;;;17.30;15.38;;;18.30;96.70;;;;;;5082168;28;20057;-71
2023/03/22 11:34:59;;;;;;;20.10;16.35;;;18.20;96.70;;;;;;5091929;28;20044;-71
2023/03/22 11:37:27;;;;;;;22.80;17.25;;;18.10;96.70;;;;;;5085656;28;20604;-71
2023/03/22 11:40:00;;;;;;;21.10;17.55;;;18.30;96.70;;;;;;5094615;28;20126;-71
2023/03/22 11:42:32;;;;;;;23.63;18.20;;;18.40;96.70;;;;;;5085277;28;20421;-71
2023/03/22 11:45:00;;;;;;;22.17;18.42;;;18.50;96.70;;;;;;5090599;28;20051;-71
2023/03/22 11:47:36;;;;;;;20.77;17.05;;;18.60;96.70;;;;;;5086665;28;20587;-71
2023/03/22 11:50:06;;;;;;;17.42;15.35;;;18.80;96.70;;;;;;5092354;28;20048;-71
2023/03/22 11:52:37;;;;;;;19.45;16.83;;;19.00;96.70;;;;;;5092717;28;20048;-71
2023/03/22 11:55:05;;;;;;;17.80;15.90;;;19.00;96.70;;;;;;5074793;28;20056;-71
2023/03/22 11:57:35;;;;;;;19.60;16.02;;;19.00;96.70;;;;;;5089570;28;20047;-71
2023/03/22 12:00:10;;;;;;;21.98;16.77;;;19.00;96.70;;;;;;5087743;28;20039;-71
2023/03/22 12:02:45;;;;;;;21.33;16.17;;;19.10;96.70;;;;;;5079201;28;20044;-72
2023/03/22 12:05:20;;;;;;;19.55;14.98;;;19.10;96.70;;;;;;5087780;28;20285;-70
2023/03/22 12:07:52;;;;;;;19.98;15.75;;;19.20;96.70;;;;;;5087806;28;20048;-71
2023/03/22 12:10:25;;;;;;;16.90;13.82;;;19.40;96.70;;;;;;5095295;28;20044;-71
2023/03/22 12:12:57;;;;;;;17.38;13.82;;;19.50;96.70;;;;;;5086220;28;20093;-71
2023/03/22 12:15:30;;;;;;;14.45;12.40;;;19.60;96.70;;;;;;5076458;28;20044;-71
2023/03/22 12:18:04;;;;;;;12.07;9.95;;;19.60;96.70;;;;;;5084186;28;20152;-71
2023/03/22 12:20:40;;;;;;;16.00;11.07;;;19.70;96.70;;;;;;5085411;28;20036;-72
2023/03/22 12:23:14;;;;;;;10.60;8.18;;;19.70;96.70;;;;;;5101490;28;20120;-71
2023/03/22 12:25:47;;;;;;;9.98;7.82;;;19.70;96.70;;;;;;5076273;28;20056;-72
2023/03/22 12:28:19;;;;;;;7.85;6.45;;;19.60;96.70;;;;;;5098366;28;20130;-71
2023/03/22 12:30:59;;;;;;;9.80;6.70;;;19.90;96.70;;;;;;5094828;28;20149;-71
2023/03/22 12:33:34;;;;;;;7.38;5.95;;;20.10;96.70;;;;;;5036949;28;20051;-72
2023/03/22 12:36:05;;;;;;;8.85;5.25;;;20.20;96.70;;;;;;5083892;28;20049;-72
2023/03/22 12:38:39;;;;;;;6.28;4.57;;;20.20;96.70;;;;;;5082953;28;20048;-73
2023/03/22 12:41:11;;;;;;;6.80;4.65;;;20.10;96.70;;;;;;5087357;28;20399;-72
2023/03/22 12:43:46;;;;;;;4.72;3.08;;;20.00;96.70;;;;;;5097175;28;20118;-72
2023/03/22 12:46:19;;;;;;;6.45;3.25;;;20.00;96.70;;;;;;5082716;28;20447;-72
2023/03/22 12:48:54;;;;;;;3.40;2.58;;;20.10;96.70;;;;;;5082323;28;20056;-72
2023/03/22 12:51:22;;;;;;;4.85;2.80;;;20.30;96.70;;;;;;5081093;28;20405;-74
2023/03/22 12:53:53;;;;;;;6.63;2.60;;;20.40;96.70;;;;;;5080716;28;20036;-71
2023/03/22 12:56:25;;;;;;;4.13;1.95;;;20.30;96.70;;;;;;5083924;28;20059;-71
2023/03/22 12:58:58;;;;;;;2.70;1.60;;;20.30;96.70;;;;;;5093096;28;20742;-71
2023/03/22 13:01:34;;;;;;;2.67;1.55;;;20.40;96.70;;;;;;5079304;28;20129;-71
2023/03/22 13:04:30;;;;;;;3.53;1.27;;;20.40;96.70;;;;;;5082407;28;20039;-72